sensor_id;sensor_type;location;lat;lon;timestamp;temperature;humidity
15630;DHT22;7914;50.842;0.166;2024-03-02T00:02:19;5.40;100.00
15630;DHT22;7914;50.842;0.166;2024-03-02T00:04:45;5.30;100.00
15630;DHT22;7914;50.842;0.166;2024-03-02T00:07:14;5.30;100.00
15630;DHT22;7914;50.842;0.166;2024-03-02T00:09:40;5.30;100.00
15630;DHT22;7914;50.842;0.166;2024-03-02T00:12:06;5.30;100.00
15630;DHT22;7914;50.842;0.166;2024-03-02T00:14:34;5.40;100.00
15630;DHT22;7914;50.842;0.166;2024-03-02T00:17:00;5.40;100.00
15630;DHT22;7914;50.842;0.166;2024-03-02T00:19:26;5.40;100.00
15630;DHT22;7914;50.842;0.166;2024-03-02T00:21:52;5.50;100.00
15630;DHT22;7914;50.842;0.166;2024-03-02T00:26:47;5.60;100.00
15630;DHT22;7914;50.842;0.166;2024-03-02T00:29:16;5.70;100.00
15630;DHT22;7914;50.842;0.166;2024-03-02T00:31:44;5.60;100.00
15630;DHT22;7914;50.842;0.166;2024-03-02T00:34:13;5.70;100.00
15630;DHT22;7914;50.842;0.166;2024-03-02T00:36:41;5.70;100.00
15630;DHT22;7914;50.842;0.166;2024-03-02T00:39:07;5.70;100.00
15630;DHT22;7914;50.842;0.166;2024-03-02T00:41:36;5.70;100.00
15630;DHT22;7914;50.842;0.166;2024-03-02T00:44:03;5.70;100.00
15630;DHT22;7914;50.842;0.166;2024-03-02T00:46:41;5.70;100.00
15630;DHT22;7914;50.842;0.166;2024-03-02T00:49:23;5.80;100.00
15630;DHT22;7914;50.842;0.166;2024-03-02T00:51:51;5.80;100.00
15630;DHT22;7914;50.842;0.166;2024-03-02T00:54:26;5.80;100.00
15630;DHT22;7914;50.842;0.166;2024-03-02T00:56:54;5.80;100.00
15630;DHT22;7914;50.842;0.166;2024-03-02T00:59:21;5.70;100.00
15630;DHT22;7914;50.842;0.166;2024-03-02T01:01:48;5.60;100.00
15630;DHT22;7914;50.842;0.166;2024-03-02T01:04:15;5.60;100.00
15630;DHT22;7914;50.842;0.166;2024-03-02T01:06:42;5.50;100.00
15630;DHT22;7914;50.842;0.166;2024-03-02T01:09:08;5.50;100.00
15630;DHT22;7914;50.842;0.166;2024-03-02T01:11:33;5.50;100.00
15630;DHT22;7914;50.842;0.166;2024-03-02T01:13:59;5.50;100.00
15630;DHT22;7914;50.842;0.166;2024-03-02T01:16:25;5.50;100.00
15630;DHT22;7914;50.842;0.166;2024-03-02T01:18:50;5.50;100.00
15630;DHT22;7914;50.842;0.166;2024-03-02T01:21:16;5.50;100.00
15630;DHT22;7914;50.842;0.166;2024-03-02T01:23:42;5.50;100.00
15630;DHT22;7914;50.842;0.166;2024-03-02T01:26:08;5.50;100.00
15630;DHT22;7914;50.842;0.166;2024-03-02T01:28:34;5.60;100.00
15630;DHT22;7914;50.842;0.166;2024-03-02T01:31:00;5.60;100.00
15630;DHT22;7914;50.842;0.166;2024-03-02T01:33:27;5.70;100.00
15630;DHT22;7914;50.842;0.166;2024-03-02T01:35:53;5.70;100.00
15630;DHT22;7914;50.842;0.166;2024-03-02T01:38:18;5.50;100.00
15630;DHT22;7914;50.842;0.166;2024-03-02T01:40:45;5.50;100.00
15630;DHT22;7914;50.842;0.166;2024-03-02T01:43:10;5.60;100.00
15630;DHT22;7914;50.842;0.166;2024-03-02T01:45:36;5.60;100.00
15630;DHT22;7914;50.842;0.166;2024-03-02T01:48:06;5.60;100.00
15630;DHT22;7914;50.842;0.166;2024-03-02T01:50:33;5.70;100.00
15630;DHT22;7914;50.842;0.166;2024-03-02T01:53:00;5.70;100.00
15630;DHT22;7914;50.842;0.166;2024-03-02T01:55:26;5.80;100.00
15630;DHT22;7914;50.842;0.166;2024-03-02T01:57:54;5.70;100.00
15630;DHT22;7914;50.842;0.166;2024-03-02T02:00:21;5.70;100.00
15630;DHT22;7914;50.842;0.166;2024-03-02T02:02:47;5.80;100.00
15630;DHT22;7914;50.842;0.166;2024-03-02T02:05:14;5.80;100.00
15630;DHT22;7914;50.842;0.166;2024-03-02T02:07:43;5.80;100.00
15630;DHT22;7914;50.842;0.166;2024-03-02T02:10:10;5.80;100.00
15630;DHT22;7914;50.842;0.166;2024-03-02T02:12:36;5.80;100.00
15630;DHT22;7914;50.842;0.166;2024-03-02T02:15:03;5.90;100.00
15630;DHT22;7914;50.842;0.166;2024-03-02T02:17:29;5.80;100.00
15630;DHT22;7914;50.842;0.166;2024-03-02T02:19:55;5.80;100.00
15630;DHT22;7914;50.842;0.166;2024-03-02T02:22:20;5.80;100.00
15630;DHT22;7914;50.842;0.166;2024-03-02T02:24:46;5.90;100.00
15630;DHT22;7914;50.842;0.166;2024-03-02T02:27:12;6.00;100.00
15630;DHT22;7914;50.842;0.166;2024-03-02T02:29:40;6.00;100.00
15630;DHT22;7914;50.842;0.166;2024-03-02T02:32:06;6.00;100.00
15630;DHT22;7914;50.842;0.166;2024-03-02T02:34:32;6.10;100.00
15630;DHT22;7914;50.842;0.166;2024-03-02T02:36:58;6.10;100.00
15630;DHT22;7914;50.842;0.166;2024-03-02T02:39:25;6.10;100.00
15630;DHT22;7914;50.842;0.166;2024-03-02T02:41:51;6.10;100.00
15630;DHT22;7914;50.842;0.166;2024-03-02T02:44:16;6.10;100.00
15630;DHT22;7914;50.842;0.166;2024-03-02T02:46:42;6.20;100.00
15630;DHT22;7914;50.842;0.166;2024-03-02T02:49:08;6.10;100.00
15630;DHT22;7914;50.842;0.166;2024-03-02T02:51:33;6.10;100.00
15630;DHT22;7914;50.842;0.166;2024-03-02T02:53:59;6.00;100.00
15630;DHT22;7914;50.842;0.166;2024-03-02T02:56:25;6.00;100.00
15630;DHT22;7914;50.842;0.166;2024-03-02T02:58:51;6.00;100.00
15630;DHT22;7914;50.842;0.166;2024-03-02T03:01:17;6.10;100.00
15630;DHT22;7914;50.842;0.166;2024-03-02T03:03:44;6.10;100.00
15630;DHT22;7914;50.842;0.166;2024-03-02T03:06:10;6.00;100.00
15630;DHT22;7914;50.842;0.166;2024-03-02T03:08:36;5.90;100.00
15630;DHT22;7914;50.842;0.166;2024-03-02T03:11:02;5.90;100.00
15630;DHT22;7914;50.842;0.166;2024-03-02T03:13:28;5.90;100.00
15630;DHT22;7914;50.842;0.166;2024-03-02T03:15:54;5.90;100.00
15630;DHT22;7914;50.842;0.166;2024-03-02T03:18:19;6.00;100.00
15630;DHT22;7914;50.842;0.166;2024-03-02T03:20:45;6.00;100.00
15630;DHT22;7914;50.842;0.166;2024-03-02T03:23:11;6.10;100.00
15630;DHT22;7914;50.842;0.166;2024-03-02T03:25:42;6.10;100.00
15630;DHT22;7914;50.842;0.166;2024-03-02T03:28:08;6.20;100.00
15630;DHT22;7914;50.842;0.166;2024-03-02T03:30:38;6.20;100.00
15630;DHT22;7914;50.842;0.166;2024-03-02T03:33:04;6.20;100.00
15630;DHT22;7914;50.842;0.166;2024-03-02T03:35:32;6.30;100.00
15630;DHT22;7914;50.842;0.166;2024-03-02T03:37:57;6.40;100.00
15630;DHT22;7914;50.842;0.166;2024-03-02T03:40:24;6.40;100.00
15630;DHT22;7914;50.842;0.166;2024-03-02T03:42:49;6.40;100.00
15630;DHT22;7914;50.842;0.166;2024-03-02T03:45:16;6.40;100.00
15630;DHT22;7914;50.842;0.166;2024-03-02T03:47:42;6.50;100.00
15630;DHT22;7914;50.842;0.166;2024-03-02T03:50:07;6.50;100.00
15630;DHT22;7914;50.842;0.166;2024-03-02T03:52:33;6.50;100.00
15630;DHT22;7914;50.842;0.166;2024-03-02T03:54:59;6.50;100.00
15630;DHT22;7914;50.842;0.166;2024-03-02T03:57:26;6.50;100.00
15630;DHT22;7914;50.842;0.166;2024-03-02T03:59:52;6.50;100.00
15630;DHT22;7914;50.842;0.166;2024-03-02T04:02:19;6.50;100.00
15630;DHT22;7914;50.842;0.166;2024-03-02T04:04:44;6.50;100.00
15630;DHT22;7914;50.842;0.166;2024-03-02T04:07:10;6.50;100.00
15630;DHT22;7914;50.842;0.166;2024-03-02T04:09:36;6.50;100.00
15630;DHT22;7914;50.842;0.166;2024-03-02T04:12:05;6.60;100.00
15630;DHT22;7914;50.842;0.166;2024-03-02T04:14:31;6.60;100.00
15630;DHT22;7914;50.842;0.166;2024-03-02T04:16:57;6.60;100.00
15630;DHT22;7914;50.842;0.166;2024-03-02T04:19:22;6.60;100.00
15630;DHT22;7914;50.842;0.166;2024-03-02T04:21:48;6.70;100.00
15630;DHT22;7914;50.842;0.166;2024-03-02T04:24:13;6.60;100.00
15630;DHT22;7914;50.842;0.166;2024-03-02T04:26:41;6.50;100.00
15630;DHT22;7914;50.842;0.166;2024-03-02T04:29:06;6.50;100.00
15630;DHT22;7914;50.842;0.166;2024-03-02T04:31:32;6.50;100.00
15630;DHT22;7914;50.842;0.166;2024-03-02T04:33:58;6.50;100.00
15630;DHT22;7914;50.842;0.166;2024-03-02T04:36:23;6.50;100.00
15630;DHT22;7914;50.842;0.166;2024-03-02T04:38:49;6.50;100.00
15630;DHT22;7914;50.842;0.166;2024-03-02T04:41:15;6.50;100.00
15630;DHT22;7914;50.842;0.166;2024-03-02T04:43:40;6.50;100.00
15630;DHT22;7914;50.842;0.166;2024-03-02T04:46:07;6.60;100.00
15630;DHT22;7914;50.842;0.166;2024-03-02T04:48:33;6.60;100.00
15630;DHT22;7914;50.842;0.166;2024-03-02T04:50:59;6.50;100.00
15630;DHT22;7914;50.842;0.166;2024-03-02T04:53:25;6.60;100.00
15630;DHT22;7914;50.842;0.166;2024-03-02T04:55:51;6.60;100.00
15630;DHT22;7914;50.842;0.166;2024-03-02T04:58:35;6.60;100.00
15630;DHT22;7914;50.842;0.166;2024-03-02T05:01:01;6.60;100.00
15630;DHT22;7914;50.842;0.166;2024-03-02T05:03:27;6.70;100.00
15630;DHT22;7914;50.842;0.166;2024-03-02T05:05:53;6.70;100.00
15630;DHT22;7914;50.842;0.166;2024-03-02T05:08:18;6.60;100.00
15630;DHT22;7914;50.842;0.166;2024-03-02T05:10:44;6.60;100.00
15630;DHT22;7914;50.842;0.166;2024-03-02T05:13:10;6.60;100.00
15630;DHT22;7914;50.842;0.166;2024-03-02T05:15:35;6.60;100.00
15630;DHT22;7914;50.842;0.166;2024-03-02T05:18:01;6.70;100.00
15630;DHT22;7914;50.842;0.166;2024-03-02T05:20:30;6.70;100.00
15630;DHT22;7914;50.842;0.166;2024-03-02T05:22:56;6.70;100.00
15630;DHT22;7914;50.842;0.166;2024-03-02T05:25:21;6.70;100.00
15630;DHT22;7914;50.842;0.166;2024-03-02T05:27:48;6.80;100.00
15630;DHT22;7914;50.842;0.166;2024-03-02T05:30:14;6.70;100.00
15630;DHT22;7914;50.842;0.166;2024-03-02T05:32:40;6.70;100.00
15630;DHT22;7914;50.842;0.166;2024-03-02T05:35:06;6.70;100.00
15630;DHT22;7914;50.842;0.166;2024-03-02T05:37:32;6.70;100.00
15630;DHT22;7914;50.842;0.166;2024-03-02T05:39:58;6.70;100.00
15630;DHT22;7914;50.842;0.166;2024-03-02T05:42:25;6.70;100.00
15630;DHT22;7914;50.842;0.166;2024-03-02T05:44:50;6.70;100.00
15630;DHT22;7914;50.842;0.166;2024-03-02T05:47:16;6.70;100.00
15630;DHT22;7914;50.842;0.166;2024-03-02T05:49:42;6.80;100.00
15630;DHT22;7914;50.842;0.166;2024-03-02T05:52:08;6.70;100.00
15630;DHT22;7914;50.842;0.166;2024-03-02T05:54:34;6.70;100.00
15630;DHT22;7914;50.842;0.166;2024-03-02T05:56:59;6.70;100.00
15630;DHT22;7914;50.842;0.166;2024-03-02T05:59:42;6.70;100.00
15630;DHT22;7914;50.842;0.166;2024-03-02T06:02:08;6.70;100.00
15630;DHT22;7914;50.842;0.166;2024-03-02T06:04:34;6.60;100.00
15630;DHT22;7914;50.842;0.166;2024-03-02T06:06:59;6.50;100.00
15630;DHT22;7914;50.842;0.166;2024-03-02T06:09:25;6.40;100.00
15630;DHT22;7914;50.842;0.166;2024-03-02T06:11:51;6.30;100.00
15630;DHT22;7914;50.842;0.166;2024-03-02T06:14:17;6.10;100.00
15630;DHT22;7914;50.842;0.166;2024-03-02T06:16:43;6.10;100.00
15630;DHT22;7914;50.842;0.166;2024-03-02T06:19:08;6.10;100.00
15630;DHT22;7914;50.842;0.166;2024-03-02T06:21:34;6.00;100.00
15630;DHT22;7914;50.842;0.166;2024-03-02T06:24:00;6.00;100.00
15630;DHT22;7914;50.842;0.166;2024-03-02T06:26:26;6.00;100.00
15630;DHT22;7914;50.842;0.166;2024-03-02T06:28:52;6.00;100.00
15630;DHT22;7914;50.842;0.166;2024-03-02T06:31:18;6.00;100.00
15630;DHT22;7914;50.842;0.166;2024-03-02T06:33:46;6.00;100.00
15630;DHT22;7914;50.842;0.166;2024-03-02T06:36:12;6.00;100.00
15630;DHT22;7914;50.842;0.166;2024-03-02T06:38:38;6.10;100.00
15630;DHT22;7914;50.842;0.166;2024-03-02T06:41:06;6.10;100.00
15630;DHT22;7914;50.842;0.166;2024-03-02T06:43:31;6.10;100.00
15630;DHT22;7914;50.842;0.166;2024-03-02T06:45:57;6.10;100.00
15630;DHT22;7914;50.842;0.166;2024-03-02T06:48:22;6.10;100.00
15630;DHT22;7914;50.842;0.166;2024-03-02T06:50:50;6.10;100.00
15630;DHT22;7914;50.842;0.166;2024-03-02T06:53:17;6.10;100.00
15630;DHT22;7914;50.842;0.166;2024-03-02T06:55:43;6.10;100.00
15630;DHT22;7914;50.842;0.166;2024-03-02T06:58:13;6.20;100.00
15630;DHT22;7914;50.842;0.166;2024-03-02T07:00:40;6.20;100.00
15630;DHT22;7914;50.842;0.166;2024-03-02T07:03:06;6.20;100.00
15630;DHT22;7914;50.842;0.166;2024-03-02T07:05:32;6.20;100.00
15630;DHT22;7914;50.842;0.166;2024-03-02T07:07:57;6.30;100.00
15630;DHT22;7914;50.842;0.166;2024-03-02T07:10:23;6.30;100.00
15630;DHT22;7914;50.842;0.166;2024-03-02T07:12:49;6.40;100.00
15630;DHT22;7914;50.842;0.166;2024-03-02T07:15:15;6.40;100.00
15630;DHT22;7914;50.842;0.166;2024-03-02T07:17:53;6.50;100.00
15630;DHT22;7914;50.842;0.166;2024-03-02T07:20:18;6.50;100.00
15630;DHT22;7914;50.842;0.166;2024-03-02T07:22:44;6.60;100.00
15630;DHT22;7914;50.842;0.166;2024-03-02T07:25:10;6.60;100.00
15630;DHT22;7914;50.842;0.166;2024-03-02T07:27:36;6.60;100.00
15630;DHT22;7914;50.842;0.166;2024-03-02T07:30:05;6.70;100.00
15630;DHT22;7914;50.842;0.166;2024-03-02T07:32:31;6.70;100.00
15630;DHT22;7914;50.842;0.166;2024-03-02T07:34:57;6.70;100.00
15630;DHT22;7914;50.842;0.166;2024-03-02T07:37:23;6.70;100.00
15630;DHT22;7914;50.842;0.166;2024-03-02T07:39:50;6.70;100.00
15630;DHT22;7914;50.842;0.166;2024-03-02T07:42:16;6.70;100.00
15630;DHT22;7914;50.842;0.166;2024-03-02T07:44:43;6.60;100.00
15630;DHT22;7914;50.842;0.166;2024-03-02T07:47:09;6.60;100.00
15630;DHT22;7914;50.842;0.166;2024-03-02T07:49:35;6.70;100.00
15630;DHT22;7914;50.842;0.166;2024-03-02T07:52:00;6.80;100.00
15630;DHT22;7914;50.842;0.166;2024-03-02T07:54:27;6.90;100.00
15630;DHT22;7914;50.842;0.166;2024-03-02T07:56:53;6.90;100.00
15630;DHT22;7914;50.842;0.166;2024-03-02T07:59:18;6.80;100.00
15630;DHT22;7914;50.842;0.166;2024-03-02T08:01:44;6.70;100.00
15630;DHT22;7914;50.842;0.166;2024-03-02T08:04:10;6.60;100.00
15630;DHT22;7914;50.842;0.166;2024-03-02T08:06:36;6.60;100.00
15630;DHT22;7914;50.842;0.166;2024-03-02T08:09:02;6.70;100.00
15630;DHT22;7914;50.842;0.166;2024-03-02T08:11:33;6.60;100.00
15630;DHT22;7914;50.842;0.166;2024-03-02T08:13:59;6.60;100.00
15630;DHT22;7914;50.842;0.166;2024-03-02T08:16:25;6.60;100.00
15630;DHT22;7914;50.842;0.166;2024-03-02T08:18:51;6.60;100.00
15630;DHT22;7914;50.842;0.166;2024-03-02T08:21:17;6.60;100.00
15630;DHT22;7914;50.842;0.166;2024-03-02T08:23:43;6.60;100.00
15630;DHT22;7914;50.842;0.166;2024-03-02T08:26:10;6.60;100.00
15630;DHT22;7914;50.842;0.166;2024-03-02T08:28:36;6.50;100.00
15630;DHT22;7914;50.842;0.166;2024-03-02T08:31:03;6.50;100.00
15630;DHT22;7914;50.842;0.166;2024-03-02T08:33:29;6.20;100.00
15630;DHT22;7914;50.842;0.166;2024-03-02T08:35:55;6.10;100.00
15630;DHT22;7914;50.842;0.166;2024-03-02T08:38:21;6.10;100.00
15630;DHT22;7914;50.842;0.166;2024-03-02T08:40:47;6.10;100.00
15630;DHT22;7914;50.842;0.166;2024-03-02T08:43:13;6.10;100.00
15630;DHT22;7914;50.842;0.166;2024-03-02T08:45:39;6.30;100.00
15630;DHT22;7914;50.842;0.166;2024-03-02T08:48:07;6.40;100.00
15630;DHT22;7914;50.842;0.166;2024-03-02T08:50:34;6.50;100.00
15630;DHT22;7914;50.842;0.166;2024-03-02T08:53:00;6.60;100.00
15630;DHT22;7914;50.842;0.166;2024-03-02T08:55:26;6.70;100.00
15630;DHT22;7914;50.842;0.166;2024-03-02T08:57:52;6.80;100.00
15630;DHT22;7914;50.842;0.166;2024-03-02T09:00:19;6.80;100.00
15630;DHT22;7914;50.842;0.166;2024-03-02T09:02:45;6.70;100.00
15630;DHT22;7914;50.842;0.166;2024-03-02T09:05:11;6.70;100.00
15630;DHT22;7914;50.842;0.166;2024-03-02T09:07:37;6.70;100.00
15630;DHT22;7914;50.842;0.166;2024-03-02T09:10:05;6.70;100.00
15630;DHT22;7914;50.842;0.166;2024-03-02T09:12:32;6.60;100.00
15630;DHT22;7914;50.842;0.166;2024-03-02T09:14:58;6.60;100.00
15630;DHT22;7914;50.842;0.166;2024-03-02T09:17:25;6.60;100.00
15630;DHT22;7914;50.842;0.166;2024-03-02T09:19:50;6.60;100.00
15630;DHT22;7914;50.842;0.166;2024-03-02T09:22:19;6.70;100.00
15630;DHT22;7914;50.842;0.166;2024-03-02T09:24:45;6.80;100.00
15630;DHT22;7914;50.842;0.166;2024-03-02T09:27:11;6.80;100.00
15630;DHT22;7914;50.842;0.166;2024-03-02T09:29:40;6.60;100.00
15630;DHT22;7914;50.842;0.166;2024-03-02T09:32:06;6.50;100.00
15630;DHT22;7914;50.842;0.166;2024-03-02T09:34:32;6.50;100.00
15630;DHT22;7914;50.842;0.166;2024-03-02T09:36:59;6.60;100.00
15630;DHT22;7914;50.842;0.166;2024-03-02T09:39:25;6.70;100.00
15630;DHT22;7914;50.842;0.166;2024-03-02T09:41:51;7.00;100.00
15630;DHT22;7914;50.842;0.166;2024-03-02T09:44:17;7.00;100.00
15630;DHT22;7914;50.842;0.166;2024-03-02T09:46:43;7.20;100.00
15630;DHT22;7914;50.842;0.166;2024-03-02T09:49:13;7.50;100.00
15630;DHT22;7914;50.842;0.166;2024-03-02T09:51:40;7.60;100.00
15630;DHT22;7914;50.842;0.166;2024-03-02T09:54:07;7.50;100.00
15630;DHT22;7914;50.842;0.166;2024-03-02T09:56:33;7.60;100.00
15630;DHT22;7914;50.842;0.166;2024-03-02T09:58:59;7.50;100.00
15630;DHT22;7914;50.842;0.166;2024-03-02T10:01:25;7.50;100.00
15630;DHT22;7914;50.842;0.166;2024-03-02T10:03:51;7.70;100.00
15630;DHT22;7914;50.842;0.166;2024-03-02T10:06:25;7.50;100.00
15630;DHT22;7914;50.842;0.166;2024-03-02T10:08:51;7.30;100.00
15630;DHT22;7914;50.842;0.166;2024-03-02T10:11:34;7.30;100.00
15630;DHT22;7914;50.842;0.166;2024-03-02T10:14:10;7.30;100.00
15630;DHT22;7914;50.842;0.166;2024-03-02T10:16:42;7.40;100.00
15630;DHT22;7914;50.842;0.166;2024-03-02T10:19:21;7.60;100.00
15630;DHT22;7914;50.842;0.166;2024-03-02T10:21:52;7.40;100.00
15630;DHT22;7914;50.842;0.166;2024-03-02T10:24:19;7.20;100.00
15630;DHT22;7914;50.842;0.166;2024-03-02T10:26:45;7.30;100.00
15630;DHT22;7914;50.842;0.166;2024-03-02T10:29:13;7.60;100.00
15630;DHT22;7914;50.842;0.166;2024-03-02T10:31:40;7.90;100.00
15630;DHT22;7914;50.842;0.166;2024-03-02T10:34:06;8.10;100.00
15630;DHT22;7914;50.842;0.166;2024-03-02T10:36:36;8.00;100.00
15630;DHT22;7914;50.842;0.166;2024-03-02T10:39:06;8.20;100.00
15630;DHT22;7914;50.842;0.166;2024-03-02T10:41:37;8.20;100.00
15630;DHT22;7914;50.842;0.166;2024-03-02T10:44:05;8.30;100.00
15630;DHT22;7914;50.842;0.166;2024-03-02T10:46:36;8.40;100.00
15630;DHT22;7914;50.842;0.166;2024-03-02T10:49:03;8.20;100.00
15630;DHT22;7914;50.842;0.166;2024-03-02T10:51:34;8.10;100.00
15630;DHT22;7914;50.842;0.166;2024-03-02T10:54:02;7.90;100.00
15630;DHT22;7914;50.842;0.166;2024-03-02T10:56:41;7.90;100.00
15630;DHT22;7914;50.842;0.166;2024-03-02T11:01:45;7.60;100.00
15630;DHT22;7914;50.842;0.166;2024-03-02T11:04:13;7.50;100.00
15630;DHT22;7914;50.842;0.166;2024-03-02T11:06:49;7.30;100.00
15630;DHT22;7914;50.842;0.166;2024-03-02T11:09:20;6.90;100.00
15630;DHT22;7914;50.842;0.166;2024-03-02T11:14:43;6.50;100.00
15630;DHT22;7914;50.842;0.166;2024-03-02T11:17:10;6.50;100.00
15630;DHT22;7914;50.842;0.166;2024-03-02T11:19:38;6.40;100.00
15630;DHT22;7914;50.842;0.166;2024-03-02T11:22:06;6.40;100.00
15630;DHT22;7914;50.842;0.166;2024-03-02T11:24:33;6.30;100.00
15630;DHT22;7914;50.842;0.166;2024-03-02T11:27:03;6.30;100.00
15630;DHT22;7914;50.842;0.166;2024-03-02T11:29:42;6.30;100.00
15630;DHT22;7914;50.842;0.166;2024-03-02T11:32:20;6.50;100.00
15630;DHT22;7914;50.842;0.166;2024-03-02T11:34:53;6.60;100.00
15630;DHT22;7914;50.842;0.166;2024-03-02T11:37:19;6.70;100.00
15630;DHT22;7914;50.842;0.166;2024-03-02T11:39:51;6.70;100.00
15630;DHT22;7914;50.842;0.166;2024-03-02T11:42:17;6.70;100.00
15630;DHT22;7914;50.842;0.166;2024-03-02T11:44:45;6.90;100.00
15630;DHT22;7914;50.842;0.166;2024-03-02T11:47:14;7.10;100.00
15630;DHT22;7914;50.842;0.166;2024-03-02T11:49:49;7.20;100.00
15630;DHT22;7914;50.842;0.166;2024-03-02T11:52:16;7.20;100.00
15630;DHT22;7914;50.842;0.166;2024-03-02T11:54:45;7.10;100.00
15630;DHT22;7914;50.842;0.166;2024-03-02T11:57:18;7.40;100.00
15630;DHT22;7914;50.842;0.166;2024-03-02T11:59:45;7.70;100.00
15630;DHT22;7914;50.842;0.166;2024-03-02T12:02:21;8.20;100.00
15630;DHT22;7914;50.842;0.166;2024-03-02T12:04:48;8.30;100.00
15630;DHT22;7914;50.842;0.166;2024-03-02T12:07:21;8.00;100.00
15630;DHT22;7914;50.842;0.166;2024-03-02T12:10:00;7.90;100.00
15630;DHT22;7914;50.842;0.166;2024-03-02T12:12:27;8.00;100.00
15630;DHT22;7914;50.842;0.166;2024-03-02T12:14:53;7.70;100.00
15630;DHT22;7914;50.842;0.166;2024-03-02T12:17:21;7.60;100.00
15630;DHT22;7914;50.842;0.166;2024-03-02T12:19:47;7.90;100.00
15630;DHT22;7914;50.842;0.166;2024-03-02T12:22:13;7.90;100.00
15630;DHT22;7914;50.842;0.166;2024-03-02T12:24:39;7.90;100.00
15630;DHT22;7914;50.842;0.166;2024-03-02T12:27:06;7.80;100.00
15630;DHT22;7914;50.842;0.166;2024-03-02T12:29:32;7.90;100.00
15630;DHT22;7914;50.842;0.166;2024-03-02T12:31:59;7.90;100.00
15630;DHT22;7914;50.842;0.166;2024-03-02T12:34:27;8.00;100.00
15630;DHT22;7914;50.842;0.166;2024-03-02T12:36:53;8.10;100.00
15630;DHT22;7914;50.842;0.166;2024-03-02T12:39:19;8.30;100.00
15630;DHT22;7914;50.842;0.166;2024-03-02T12:41:51;8.40;100.00
15630;DHT22;7914;50.842;0.166;2024-03-02T12:44:19;8.50;100.00
15630;DHT22;7914;50.842;0.166;2024-03-02T12:46:46;8.60;100.00
15630;DHT22;7914;50.842;0.166;2024-03-02T12:49:13;8.60;100.00
15630;DHT22;7914;50.842;0.166;2024-03-02T12:51:42;8.40;100.00
15630;DHT22;7914;50.842;0.166;2024-03-02T12:54:09;8.30;100.00
15630;DHT22;7914;50.842;0.166;2024-03-02T12:56:37;8.40;100.00
15630;DHT22;7914;50.842;0.166;2024-03-02T12:59:03;8.40;100.00
15630;DHT22;7914;50.842;0.166;2024-03-02T13:01:29;8.40;100.00
15630;DHT22;7914;50.842;0.166;2024-03-02T13:03:58;8.50;100.00
15630;DHT22;7914;50.842;0.166;2024-03-02T13:06:25;8.50;100.00
15630;DHT22;7914;50.842;0.166;2024-03-02T13:08:53;8.50;100.00
15630;DHT22;7914;50.842;0.166;2024-03-02T13:11:21;8.50;100.00
15630;DHT22;7914;50.842;0.166;2024-03-02T13:13:47;8.60;100.00
15630;DHT22;7914;50.842;0.166;2024-03-02T13:16:12;8.70;100.00
15630;DHT22;7914;50.842;0.166;2024-03-02T13:18:39;8.60;100.00
15630;DHT22;7914;50.842;0.166;2024-03-02T13:21:06;8.60;100.00
15630;DHT22;7914;50.842;0.166;2024-03-02T13:23:31;8.80;100.00
15630;DHT22;7914;50.842;0.166;2024-03-02T13:25:58;8.90;100.00
15630;DHT22;7914;50.842;0.166;2024-03-02T13:28:27;8.90;100.00
15630;DHT22;7914;50.842;0.166;2024-03-02T13:30:53;9.00;100.00
15630;DHT22;7914;50.842;0.166;2024-03-02T13:33:19;8.70;100.00
15630;DHT22;7914;50.842;0.166;2024-03-02T13:35:51;8.70;100.00
15630;DHT22;7914;50.842;0.166;2024-03-02T13:38:18;8.80;100.00
15630;DHT22;7914;50.842;0.166;2024-03-02T13:40:44;9.00;100.00
15630;DHT22;7914;50.842;0.166;2024-03-02T13:43:10;9.20;100.00
15630;DHT22;7914;50.842;0.166;2024-03-02T13:45:37;9.50;100.00
15630;DHT22;7914;50.842;0.166;2024-03-02T13:48:03;9.30;100.00
15630;DHT22;7914;50.842;0.166;2024-03-02T13:50:29;9.20;100.00
15630;DHT22;7914;50.842;0.166;2024-03-02T13:52:56;9.00;100.00
15630;DHT22;7914;50.842;0.166;2024-03-02T13:55:22;8.90;100.00
15630;DHT22;7914;50.842;0.166;2024-03-02T13:57:48;8.60;100.00
15630;DHT22;7914;50.842;0.166;2024-03-02T14:00:17;8.60;100.00
15630;DHT22;7914;50.842;0.166;2024-03-02T14:02:45;8.80;100.00
15630;DHT22;7914;50.842;0.166;2024-03-02T14:05:11;9.10;100.00
15630;DHT22;7914;50.842;0.166;2024-03-02T14:07:43;9.10;100.00
15630;DHT22;7914;50.842;0.166;2024-03-02T14:10:10;9.30;100.00
15630;DHT22;7914;50.842;0.166;2024-03-02T14:12:37;9.10;100.00
15630;DHT22;7914;50.842;0.166;2024-03-02T14:15:04;8.90;100.00
15630;DHT22;7914;50.842;0.166;2024-03-02T14:17:29;8.90;100.00
15630;DHT22;7914;50.842;0.166;2024-03-02T14:19:57;8.90;100.00
15630;DHT22;7914;50.842;0.166;2024-03-02T14:22:24;8.90;100.00
15630;DHT22;7914;50.842;0.166;2024-03-02T14:24:50;8.80;100.00
15630;DHT22;7914;50.842;0.166;2024-03-02T14:27:16;8.70;100.00
15630;DHT22;7914;50.842;0.166;2024-03-02T14:29:45;8.70;100.00
15630;DHT22;7914;50.842;0.166;2024-03-02T14:32:11;8.70;100.00
15630;DHT22;7914;50.842;0.166;2024-03-02T14:34:36;8.80;100.00
15630;DHT22;7914;50.842;0.166;2024-03-02T14:37:04;8.70;100.00
15630;DHT22;7914;50.842;0.166;2024-03-02T14:39:29;8.60;100.00
15630;DHT22;7914;50.842;0.166;2024-03-02T14:42:00;8.60;100.00
15630;DHT22;7914;50.842;0.166;2024-03-02T14:44:26;8.60;100.00
15630;DHT22;7914;50.842;0.166;2024-03-02T14:46:52;8.40;100.00
15630;DHT22;7914;50.842;0.166;2024-03-02T14:49:18;8.40;100.00
15630;DHT22;7914;50.842;0.166;2024-03-02T14:51:44;8.50;100.00
15630;DHT22;7914;50.842;0.166;2024-03-02T14:54:10;8.40;100.00
15630;DHT22;7914;50.842;0.166;2024-03-02T14:56:35;8.40;100.00
15630;DHT22;7914;50.842;0.166;2024-03-02T14:59:01;8.30;100.00
15630;DHT22;7914;50.842;0.166;2024-03-02T15:01:27;8.30;100.00
15630;DHT22;7914;50.842;0.166;2024-03-02T15:03:53;8.30;100.00
15630;DHT22;7914;50.842;0.166;2024-03-02T15:06:19;8.30;100.00
15630;DHT22;7914;50.842;0.166;2024-03-02T15:08:44;8.30;100.00
15630;DHT22;7914;50.842;0.166;2024-03-02T15:11:14;8.30;100.00
15630;DHT22;7914;50.842;0.166;2024-03-02T15:13:40;8.30;100.00
15630;DHT22;7914;50.842;0.166;2024-03-02T15:16:05;8.40;100.00
15630;DHT22;7914;50.842;0.166;2024-03-02T15:18:31;8.40;100.00
15630;DHT22;7914;50.842;0.166;2024-03-02T15:20:57;8.40;100.00
15630;DHT22;7914;50.842;0.166;2024-03-02T15:23:22;8.40;100.00
15630;DHT22;7914;50.842;0.166;2024-03-02T15:25:49;8.40;100.00
15630;DHT22;7914;50.842;0.166;2024-03-02T15:28:19;8.40;100.00
15630;DHT22;7914;50.842;0.166;2024-03-02T15:30:44;8.40;100.00
15630;DHT22;7914;50.842;0.166;2024-03-02T15:33:10;8.40;100.00
15630;DHT22;7914;50.842;0.166;2024-03-02T15:35:36;8.50;100.00
15630;DHT22;7914;50.842;0.166;2024-03-02T15:38:02;8.50;100.00
15630;DHT22;7914;50.842;0.166;2024-03-02T15:40:27;8.40;100.00
15630;DHT22;7914;50.842;0.166;2024-03-02T15:42:53;8.30;100.00
15630;DHT22;7914;50.842;0.166;2024-03-02T15:45:22;8.20;100.00
15630;DHT22;7914;50.842;0.166;2024-03-02T15:47:48;8.10;100.00
15630;DHT22;7914;50.842;0.166;2024-03-02T15:50:14;8.20;100.00
15630;DHT22;7914;50.842;0.166;2024-03-02T15:52:40;8.10;100.00